KMPZ/MPZ METAR and TAF weather

Enter ICAO airport designator
Station Type Date Time Source
KMPZ METAR 2022/01/25 03:55 UTC NOAA

KMPZ 250355Z AUTO 32008KT 10SM CLR M12/M15 A3012 RMK AO2


Station Type Date Time Source
KMPZ Decoded METAR 2022/01/25 03:55 UTC NOAA

Mount Pleasant, Mount Pleasant Municipal Airport, IA, United States (KMPZ) 40-56-48N 091-30-40W
Jan 24, 2022 - 10:55 PM EST / 2022.01.25 0355 UTC
Wind: from the NW (320 degrees) at 9 MPH (8 KT):0
Visibility: 10 mile(s):0
Sky conditions: clear
Temperature: 10 F (-12 C)
Windchill: -2 F (-19 C):1
Dew Point: 5 F (-15 C)
Relative Humidity: 78%
Pressure (altimeter): 30.12 in. Hg (1019 hPa)
ob: KMPZ 250355Z AUTO 32008KT 10SM CLR M12/M15 A3012 RMK AO2
cycle: 4

Station Type Date Time Source
KMPZ TAF UTC NOAA

Error!

Example: see airport list